Heath, Ohio
Current Conditions -  °F | °C
As of 8:54 AM on Saturday 25 Oct 2014 (Local Time) from KVTA Reporting Station
Clear Clear  
Wind Chill: 45°   Ceiling: Unl
Heat Index: 47°   Visibility: 7mi
Dew Point: 43°   Wind: 5mph
Humidity: 86%   Direction: 220°SW
Pressure: 29.97"   Gusts: NA
Location:  40.04°N, 82.43°W
Report Text: KVTA 251254Z AUTO 22004KT 7SM CLR 08/06 A2997 RMK AO2 SLP152 T00830061
Loading
Personal Weather Stations






























Interactive Weather Map
Tropical Storm Tracking
New forecast layout! Learn more

10-Day Weather Forecast

Advertisements
Track Severe Weather on mobile